METAR AND TAF INFORMATION
METAR FOR DTMB
ADDS - METARS form results

(0420 UTC 29 February 2020)
Data provider http://aviationweather.gov/metar/data/
 
METAR text: DTMB 290400Z AUTO 00000KT /// 11/11 Q1021
Conditions at: DTMB (HABIB BOURGUIBA , TN) observed 0400 UTC 29 February 2020
Temperature: 11.0°C (52°F)
Dewpoint: 11.0°C (52°F) [RH = 100%]
Pressure (altimeter): 30.15 inches Hg (1021.0 mb)
Winds: calm
Visibility: missing
Ceiling: unknown
Clouds: missing
Weather: no significant weather observed at this time

METAR text: DTMB 290330Z AUTO 00000KT /// 12/11 Q1021
Conditions at: DTMB (HABIB BOURGUIBA , TN) observed 0330 UTC 29 February 2020
Temperature: 12.0°C (54°F)
Dewpoint: 11.0°C (52°F) [RH = 94%]
Pressure (altimeter): 30.15 inches Hg (1021.0 mb)
Winds: calm
Visibility: missing
Ceiling: unknown
Clouds: missing
Weather: no significant weather observed at this time

Forecast for: DTMB (HABIB BOURGUIBA , TN)
Text: TAF DTMB 282300Z 2900/2924 03005KT 8000 NSC
Forecast period: 0000 to 1000 UTC 29 February 2020
Forecast type: FROM: standard forecast or significant change
Winds: from the NNE (30 degrees) at 6 MPH (5 knots; 2.6 m/s)
Visibility: 5 miles (8 km)
Ceiling: unknown
Clouds: missing
Weather: no significant weather forecast for this period
Text: PROB30 2902/2907 4000 BR
Forecast period: 0200 to 0700 UTC 29 February 2020
Forecast type: PROBABLE: 30 percent likelihood of the following during this time
Visibility: 2.49 miles (4.01 km)
Ceiling: unknown
Clouds: missing
Weather: BR  (mist)
Text: BECMG 2910/2912 19012KT
Forecast period: 1000 to 2000 UTC 29 February 2020
Forecast type: BECOMING: Conditions expected to become as follows by 1200 UTC 29 February 2020
Winds: from the S (190 degrees) at 14 MPH (12 knots; 6.2 m/s)
Visibility: 5 miles (8 km)
Ceiling: unknown
Clouds: missing
Weather: no significant weather forecast for this period
Text: BECMG 2920/2922 VRB04KT
Forecast period: 2000 UTC 29 February 2020 to 0000 UTC 01 March 2020
Forecast type: BECOMING: Conditions expected to become as follows by 2200 UTC 29 February 2020
Winds: variable direction winds at 5 MPH (4 knots; 2.1 m/s)
Visibility: 5 miles (8 km)
Ceiling: unknown
Clouds: missing
Weather: no significant weather forecast for this period

 AIRPORT MAP

 RUNWAY INFORMATION

 AIRPORT FREQUENCIES
Type APP Name BOURGUIBA Frequency 119.3 MHZ
Type ATIS Name MONASTIR A Frequency 113.1 MHZ
Type TWR Name BOURGUIBA Frequency 118.3 MHZ

 AIRPORT NEAR NAVIGATION AIDS
Type VOR-DME Name Monastir Frequency 113100 KHZ



2018 Air Astana Virtual Airline